createdAt,value
2022-10-30T00:00:51.382Z,146368.38
2022-10-30T00:03:18.546Z,146322.13
2022-10-30T00:05:48.284Z,146387.88
2022-10-30T00:08:18.386Z,146368.38
2022-10-30T00:10:46.792Z,146328.22
2022-10-30T00:13:14.180Z,146268.59
2022-10-30T00:15:47.228Z,146333.09
2022-10-30T00:18:14.738Z,146358.63
2022-10-30T00:20:41.792Z,146365.97
2022-10-30T00:23:08.895Z,146279.53
2022-10-30T00:25:36.388Z,146322.13
2022-10-30T00:28:05.342Z,146328.22
2022-10-30T00:30:33.793Z,146322.13
2022-10-30T00:33:01.391Z,146331.84
2022-10-30T00:35:28.711Z,146234.47
2022-10-30T00:37:56.034Z,146302.66
2022-10-30T00:40:24.022Z,146202.84
2022-10-30T00:42:51.898Z,146280.72
2022-10-30T00:45:18.973Z,146246.66
2022-10-30T00:48:03.349Z,146216.22
2022-10-30T00:50:35.594Z,146283.19
2022-10-30T00:53:11.676Z,146253.94
2022-10-30T00:55:44.722Z,146236.94
2022-10-30T00:58:16.184Z,146251.53
2022-10-30T01:00:48.721Z,146139.56
2022-10-30T01:03:16.107Z,146218.69
2022-10-30T01:05:48.739Z,146219.88
2022-10-30T01:08:15.752Z,146211.34
2022-10-30T01:10:43.682Z,146215.03
2022-10-30T01:13:11.454Z,146133.47
2022-10-30T01:15:50.244Z,146178.50
2022-10-30T01:18:33.232Z,146122.56
2022-10-30T01:21:08.559Z,146143.22
2022-10-30T01:23:46.367Z,146101.84
2022-10-30T01:26:32.948Z,146055.56
2022-10-30T01:29:30.490Z,146088.47
2022-10-30T01:32:20.258Z,146083.59
2022-10-30T01:35:05.166Z,146087.25
2022-10-30T01:38:13.467Z,146089.66
2022-10-30T01:40:40.472Z,145991.13
2022-10-30T01:43:09.144Z,146066.50
2022-10-30T01:46:04.433Z,146002.03
2022-10-30T01:48:49.872Z,146036.13
2022-10-30T01:51:19.940Z,146033.66
2022-10-30T01:53:58.946Z,146021.50
2022-10-30T01:56:39.072Z,146027.59
2022-10-30T01:59:23.285Z,146019.09
2022-10-30T02:01:50.504Z,146025.16
2022-10-30T02:04:17.811Z,145978.94
2022-10-30T02:06:45.307Z,146055.56
2022-10-30T02:09:15.545Z,145978.94
2022-10-30T02:11:48.299Z,146005.69
2022-10-30T02:14:21.437Z,145976.53
2022-10-30T02:16:51.440Z,146054.38
2022-10-30T02:19:20.331Z,146008.16
2022-10-30T02:21:48.797Z,146020.28
2022-10-30T02:24:15.882Z,145943.66
2022-10-30T02:26:43.282Z,146000.84
2022-10-30T02:29:10.271Z,145896.25
2022-10-30T02:31:37.694Z,146017.88
2022-10-30T02:34:05.208Z,145930.28
2022-10-30T02:36:32.780Z,146056.78
2022-10-30T02:39:00.131Z,146064.09
2022-10-30T02:41:27.366Z,146072.63
2022-10-30T02:43:54.583Z,146071.38
2022-10-30T02:46:22.039Z,146076.28
2022-10-30T02:48:49.209Z,146061.63
2022-10-30T02:51:16.824Z,146083.59
2022-10-30T02:53:45.019Z,146078.72
2022-10-30T03:00:01.406Z,146093.31
2022-10-30T03:02:29.356Z,146032.47
2022-10-30T03:04:56.371Z,146068.97
2022-10-30T03:07:23.385Z,146044.66
2022-10-30T03:09:52.023Z,146068.97
2022-10-30T03:12:19.033Z,146047.06
2022-10-30T03:14:46.146Z,145944.91
2022-10-30T03:17:13.185Z,145918.16
2022-10-30T03:19:40.891Z,146005.69
2022-10-30T03:22:10.223Z,145992.31
2022-10-30T03:24:38.544Z,145893.78
2022-10-30T03:27:06.319Z,145978.94
2022-10-30T03:29:33.396Z,145986.25
2022-10-30T03:32:02.265Z,145964.34
2022-10-30T03:34:34.200Z,145985.00
2022-10-30T03:37:05.245Z,145905.97
2022-10-30T03:39:32.343Z,145910.84
2022-10-30T03:41:59.390Z,145948.50
2022-10-30T03:44:26.422Z,145972.88
2022-10-30T03:46:54.072Z,145977.72
2022-10-30T03:49:28.191Z,145959.50
2022-10-30T03:51:56.517Z,145944.91
2022-10-30T03:54:25.773Z,145949.78
2022-10-30T03:56:52.853Z,145957.03
2022-10-30T03:59:20.829Z,145960.69
2022-10-30T04:02:07.041Z,145919.34
2022-10-30T04:04:34.779Z,145966.75
2022-10-30T04:07:01.826Z,145902.31
2022-10-30T04:09:28.808Z,145964.34
2022-10-30T04:11:55.878Z,145970.41
2022-10-30T04:14:22.896Z,145957.03
2022-10-30T04:16:50.008Z,145930.28
2022-10-30T04:19:17.546Z,145869.50
2022-10-30T04:21:47.717Z,145921.81
2022-10-30T04:24:17.108Z,145920.56
2022-10-30T04:26:45.593Z,145875.56
2022-10-30T04:29:12.577Z,145847.59
2022-10-30T04:31:39.591Z,145869.50
2022-10-30T04:34:06.684Z,145837.88
2022-10-30T04:36:34.239Z,145781.97
2022-10-30T04:39:02.450Z,145858.56
2022-10-30T04:41:29.773Z,145850.06
2022-10-30T04:44:04.748Z,145796.56
2022-10-30T04:46:33.166Z,145845.19
2022-10-30T04:49:07.630Z,145847.59
2022-10-30T04:51:35.728Z,145835.47
2022-10-30T04:54:04.597Z,145807.53
2022-10-30T04:56:32.992Z,145750.38
2022-10-30T04:59:00.312Z,145824.50
2022-10-30T05:01:27.549Z,145762.53
2022-10-30T05:03:58.879Z,145689.56
2022-10-30T05:06:30.111Z,145743.06
2022-10-30T05:08:57.944Z,145735.78
2022-10-30T05:11:32.997Z,145711.50
2022-10-30T05:13:59.983Z,145693.22
2022-10-30T05:16:27.009Z,145689.56
2022-10-30T05:18:55.287Z,145703.00
2022-10-30T05:21:22.352Z,145672.56
2022-10-30T05:23:49.412Z,145645.81
2022-10-30T05:26:16.646Z,145721.22
2022-10-30T05:28:43.721Z,145677.41
2022-10-30T05:31:10.818Z,145604.50
2022-10-30T05:33:56.449Z,145688.31
2022-10-30T05:36:25.493Z,145679.84
2022-10-30T05:38:53.169Z,145592.34
2022-10-30T05:41:32.030Z,145626.38
2022-10-30T05:43:59.310Z,145645.81
2022-10-30T05:46:26.716Z,145651.88
2022-10-30T05:48:55.163Z,145659.19
2022-10-30T05:51:23.245Z,145599.66
2022-10-30T05:53:54.495Z,145633.66
2022-10-30T05:56:25.289Z,145657.97
2022-10-30T05:58:52.452Z,145679.84
2022-10-30T06:01:19.601Z,145689.56
2022-10-30T06:03:50.905Z,145640.97
2022-10-30T06:06:17.935Z,145670.09
2022-10-30T06:08:45.409Z,145659.19
2022-10-30T06:11:31.307Z,145633.66
2022-10-30T06:14:00.091Z,145651.88
2022-10-30T06:16:40.031Z,145582.63
2022-10-30T06:19:19.206Z,145628.78
2022-10-30T06:21:49.148Z,145610.56
2022-10-30T06:24:33.393Z,145599.66
2022-10-30T06:27:19.102Z,145597.19
2022-10-30T06:29:46.117Z,145602.09
2022-10-30T06:32:13.144Z,145526.78
2022-10-30T06:34:42.782Z,145529.22
2022-10-30T06:37:10.296Z,145596.00
2022-10-30T06:39:38.775Z,145602.09
2022-10-30T06:42:26.122Z,145606.97
2022-10-30T06:45:08.069Z,145568.06
2022-10-30T06:47:36.245Z,145621.53
2022-10-30T06:50:05.174Z,145613.03
2022-10-30T06:52:32.273Z,145626.38
2022-10-30T06:55:00.587Z,145610.56
2022-10-30T06:58:05.803Z,145606.97
2022-10-30T07:00:54.022Z,145580.22
2022-10-30T07:03:50.065Z,145621.53
2022-10-30T07:06:17.479Z,145577.78
2022-10-30T07:08:44.487Z,145628.78
2022-10-30T07:11:13.529Z,145645.81
2022-10-30T07:13:59.077Z,145604.50
2022-10-30T07:16:48.199Z,145643.41
2022-10-30T07:19:15.184Z,145698.09
2022-10-30T07:21:42.525Z,145681.06
2022-10-30T07:24:10.541Z,145694.44
2022-10-30T07:27:16.055Z,145659.19
2022-10-30T07:29:50.123Z,145721.22
2022-10-30T07:32:22.420Z,145694.44
2022-10-30T07:34:51.815Z,145762.53
2022-10-30T07:37:21.401Z,145781.97
2022-10-30T07:40:12.782Z,145772.25
2022-10-30T07:43:06.460Z,145802.63
2022-10-30T07:45:44.732Z,145771.06
2022-10-30T07:48:29.784Z,145789.28
2022-10-30T07:51:04.744Z,145784.38
2022-10-30T07:53:32.112Z,145850.06
2022-10-30T07:55:59.622Z,145875.56
2022-10-30T07:58:45.828Z,145799.00
2022-10-30T08:01:31.936Z,145857.31
2022-10-30T08:04:11.189Z,145918.16
2022-10-30T08:06:38.565Z,145869.50
2022-10-30T08:09:05.690Z,145891.38
2022-10-30T08:11:33.783Z,145988.66
2022-10-30T08:14:01.252Z,146023.94
2022-10-30T08:16:28.433Z,145968.00
2022-10-30T08:18:55.494Z,146056.78
2022-10-30T08:21:25.565Z,146062.91
2022-10-30T08:23:58.111Z,146047.06
2022-10-30T08:26:28.161Z,146083.59
2022-10-30T08:28:55.210Z,146103.06
2022-10-30T08:31:24.093Z,146129.81
2022-10-30T08:34:20.056Z,146218.69
2022-10-30T08:36:52.491Z,146202.84
2022-10-30T08:39:20.247Z,146275.84
2022-10-30T08:42:05.876Z,146229.63
2022-10-30T08:44:39.121Z,146253.94
2022-10-30T08:47:28.192Z,146347.69
2022-10-30T08:49:55.257Z,146336.75
2022-10-30T08:52:25.588Z,146381.78
2022-10-30T08:54:55.869Z,146404.91
2022-10-30T08:57:26.214Z,146445.16
2022-10-30T08:59:54.871Z,146481.69
2022-10-30T09:02:40.526Z,146451.25
2022-10-30T09:05:26.240Z,146485.34
2022-10-30T09:08:29.072Z,146626.66
2022-10-30T09:11:08.482Z,146640.06
2022-10-30T09:13:35.577Z,146714.44
2022-10-30T09:16:04.496Z,146755.88
2022-10-30T09:18:34.712Z,146787.56
2022-10-30T09:21:04.771Z,146816.84
2022-10-30T09:23:36.545Z,146804.66
2022-10-30T09:26:23.523Z,146792.44
2022-10-30T09:28:56.009Z,146802.19
2022-10-30T09:31:45.874Z,146841.22
2022-10-30T09:34:17.245Z,146870.47
2022-10-30T09:37:08.283Z,146936.34
2022-10-30T09:39:37.799Z,146991.25
2022-10-30T09:42:27.299Z,147009.56
2022-10-30T09:45:27.801Z,147033.94
2022-10-30T09:47:56.292Z,147011.97
2022-10-30T09:50:41.454Z,146987.59
2022-10-30T09:53:25.225Z,147073.00
2022-10-30T09:56:12.060Z,147068.06
2022-10-30T09:59:01.011Z,147109.59
2022-10-30T10:01:48.832Z,147096.16
2022-10-30T10:04:26.743Z,147152.28
2022-10-30T10:07:19.940Z,147191.31
2022-10-30T10:10:00.238Z,147186.44
2022-10-30T10:12:43.829Z,147155.97
2022-10-30T10:15:51.230Z,147291.44
2022-10-30T10:18:28.060Z,147320.78
2022-10-30T10:21:00.937Z,147346.38
2022-10-30T10:23:40.742Z,147397.66
2022-10-30T10:26:28.362Z,147442.84
2022-10-30T10:28:58.119Z,147461.16
2022-10-30T10:31:53.888Z,147390.34
2022-10-30T10:34:33.192Z,147466.03
2022-10-30T10:37:13.756Z,147505.19
2022-10-30T10:39:49.588Z,147532.06
2022-10-30T10:42:24.565Z,147541.81
2022-10-30T10:45:17.678Z,147522.28
2022-10-30T10:48:03.638Z,147529.59
2022-10-30T10:50:38.898Z,147473.38
2022-10-30T10:53:15.792Z,147507.59
2022-10-30T10:55:48.701Z,147593.13
2022-10-30T10:58:39.679Z,147629.75
2022-10-30T11:01:14.225Z,147662.75
2022-10-30T11:03:59.295Z,147693.31
2022-10-30T11:06:40.472Z,147640.78
2022-10-30T11:09:16.458Z,147727.53
2022-10-30T11:11:44.526Z,147736.13
2022-10-30T11:14:15.371Z,147767.88
2022-10-30T11:17:11.794Z,147796.00
2022-10-30T11:19:38.837Z,147793.56
2022-10-30T11:22:30.457Z,147893.81
2022-10-30T11:25:25.327Z,147930.50
2022-10-30T11:27:57.693Z,147928.03
2022-10-30T11:30:28.471Z,148023.47
2022-10-30T11:32:57.317Z,148010.00
2022-10-30T11:35:25.374Z,148025.94
2022-10-30T11:38:13.646Z,148069.94
2022-10-30T11:40:47.417Z,148123.75
2022-10-30T11:43:20.829Z,148151.94
2022-10-30T11:45:48.792Z,148077.28
2022-10-30T11:48:33.199Z,148170.28
2022-10-30T11:51:01.986Z,148169.09
2022-10-30T11:53:36.481Z,148155.63
2022-10-30T11:56:11.149Z,148109.09
2022-10-30T11:58:53.849Z,148219.25
2022-10-30T12:01:25.312Z,148251.06
2022-10-30T12:03:54.349Z,148243.69
2022-10-30T12:06:21.473Z,148237.59
2022-10-30T12:09:12.361Z,148226.56
2022-10-30T12:11:43.279Z,148255.97
2022-10-30T12:14:20.004Z,148196.00
2022-10-30T12:16:52.076Z,148320.81
2022-10-30T12:19:22.660Z,148336.69
2022-10-30T12:21:53.807Z,148330.59
2022-10-30T12:24:32.052Z,148368.56
2022-10-30T12:27:03.506Z,148312.22
2022-10-30T12:30:08.802Z,148304.88
2022-10-30T12:32:57.466Z,148302.44
2022-10-30T12:35:41.005Z,148344.06
2022-10-30T12:38:18.685Z,148266.94
2022-10-30T12:41:04.092Z,148238.81
2022-10-30T12:43:36.332Z,148287.78
2022-10-30T12:46:21.820Z,148243.69
2022-10-30T12:48:56.199Z,148258.38
2022-10-30T12:51:39.477Z,148298.78
2022-10-30T12:54:30.909Z,148275.53
2022-10-30T12:57:18.845Z,148297.56
2022-10-30T12:59:57.597Z,148290.19
2022-10-30T13:02:52.744Z,148317.13
2022-10-30T13:05:29.326Z,148361.25
2022-10-30T13:08:20.402Z,148311.03
2022-10-30T13:10:54.234Z,148334.28
2022-10-30T13:13:41.137Z,148405.28
2022-10-30T13:16:19.923Z,148384.50
2022-10-30T13:18:47.041Z,148367.38
2022-10-30T13:21:50.714Z,148417.53
2022-10-30T13:24:43.562Z,148389.41
2022-10-30T13:27:19.789Z,148446.91
2022-10-30T13:30:03.613Z,148451.81
2022-10-30T13:32:55.270Z,148465.28
2022-10-30T13:35:22.548Z,148435.91
2022-10-30T13:38:01.693Z,148456.69
2022-10-30T13:40:38.229Z,148495.91
2022-10-30T13:43:38.585Z,148527.75
2022-10-30T13:46:42.460Z,148535.06
2022-10-30T13:49:31.750Z,148620.84
2022-10-30T13:52:10.194Z,148628.22
2022-10-30T13:55:02.093Z,148655.16
2022-10-30T13:57:43.599Z,148644.13
2022-10-30T14:00:19.503Z,148576.75
2022-10-30T14:03:21.901Z,148574.31
2022-10-30T14:06:02.651Z,148527.75
2022-10-30T14:08:57.627Z,148486.13
2022-10-30T14:11:24.678Z,148439.59
2022-10-30T14:14:23.995Z,148437.13
2022-10-30T14:17:13.899Z,148487.31
2022-10-30T14:20:12.550Z,148478.75
2022-10-30T14:22:41.298Z,148429.75
2022-10-30T14:25:17.424Z,148407.75
2022-10-30T14:27:55.833Z,148415.09
2022-10-30T14:30:23.094Z,148395.50
2022-10-30T14:32:52.215Z,148417.53
2022-10-30T14:35:37.453Z,148275.53
2022-10-30T14:38:10.445Z,148380.81
2022-10-30T14:40:45.165Z,148371.03
2022-10-30T14:43:29.007Z,148277.94
2022-10-30T14:46:03.757Z,148377.16
2022-10-30T14:48:49.748Z,148229.03
2022-10-30T14:51:23.069Z,148275.53
2022-10-30T14:54:02.029Z,148334.28
2022-10-30T14:56:49.365Z,148270.63
2022-10-30T14:59:16.283Z,148291.41
2022-10-30T15:02:38.048Z,148270.63
2022-10-30T15:05:30.621Z,148248.59
2022-10-30T15:08:21.909Z,148207.00
2022-10-30T15:11:02.741Z,148194.75
2022-10-30T15:13:29.829Z,148123.75
2022-10-30T15:16:07.359Z,148148.25
2022-10-30T15:18:34.665Z,148182.53
2022-10-30T15:21:05.786Z,148186.19
2022-10-30T15:23:35.545Z,148153.16
2022-10-30T15:26:09.744Z,148138.44
2022-10-30T15:28:38.663Z,148079.72
2022-10-30T15:31:25.770Z,148123.75
2022-10-30T15:34:00.031Z,148102.94
2022-10-30T15:36:35.611Z,148068.72
2022-10-30T15:39:03.743Z,148045.50
2022-10-30T15:41:31.418Z,148018.56
2022-10-30T15:43:59.002Z,147979.41
2022-10-30T15:46:26.673Z,147952.56
2022-10-30T15:48:53.863Z,147915.84
2022-10-30T15:51:23.047Z,147881.56
2022-10-30T15:53:54.047Z,147827.78
2022-10-30T15:57:17.975Z,147759.31
2022-10-30T15:59:35.534Z,147673.78
2022-10-30T16:02:02.686Z,147668.88
2022-10-30T16:04:36.472Z,147580.88
2022-10-30T16:07:17.428Z,147573.59
2022-10-30T16:09:57.947Z,147529.59
2022-10-30T16:12:34.324Z,147400.09
2022-10-30T16:15:08.712Z,147477.06
2022-10-30T16:17:35.769Z,147462.41
2022-10-30T16:20:04.280Z,147452.59
2022-10-30T16:22:37.947Z,147429.41
2022-10-30T16:25:12.785Z,147419.63
2022-10-30T16:27:44.762Z,147319.50
2022-10-30T16:30:16.673Z,147400.09
2022-10-30T16:32:55.296Z,147353.72
2022-10-30T16:35:24.305Z,147375.72
2022-10-30T16:37:51.708Z,147363.47
2022-10-30T16:40:28.404Z,147343.97
2022-10-30T16:42:58.446Z,147286.56
2022-10-30T16:45:29.020Z,147317.09
2022-10-30T16:48:05.893Z,147298.78
2022-10-30T16:50:38.012Z,147268.25
2022-10-30T16:53:07.308Z,147260.97
2022-10-30T16:55:38.469Z,147259.72
2022-10-30T16:58:05.525Z,147219.41
2022-10-30T17:00:36.362Z,147114.47
2022-10-30T17:03:10.542Z,147143.75
2022-10-30T17:05:38.550Z,147187.69
2022-10-30T17:08:26.718Z,147173.00
2022-10-30T17:11:00.058Z,147151.06
2022-10-30T17:13:35.735Z,147107.13
2022-10-30T17:16:24.989Z,147116.88
2022-10-30T17:18:57.381Z,147107.13
2022-10-30T17:21:38.348Z,147065.66
2022-10-30T17:24:06.105Z,146987.59
2022-10-30T17:26:41.281Z,147021.72
2022-10-30T17:29:37.401Z,147004.69
2022-10-30T17:32:14.727Z,146994.94
2022-10-30T17:34:41.717Z,146971.66
2022-10-30T17:37:08.691Z,146946.09
2022-10-30T17:39:35.664Z,146918.03
2022-10-30T17:42:02.863Z,146919.25
2022-10-30T17:44:33.029Z,146843.63
2022-10-30T17:47:00.745Z,146816.84
2022-10-30T17:49:32.176Z,146850.97
2022-10-30T17:51:59.580Z,146821.72
2022-10-30T17:54:26.644Z,146853.44
2022-10-30T17:56:54.276Z,146832.69
2022-10-30T17:59:21.347Z,146829.00
2022-10-30T18:01:49.148Z,146754.66
2022-10-30T18:04:21.147Z,146794.91
2022-10-30T18:06:49.304Z,146777.81
2022-10-30T18:09:16.451Z,146743.72
2022-10-30T18:11:43.565Z,146707.09
2022-10-30T18:14:11.669Z,146660.75
2022-10-30T18:16:39.191Z,146644.94
2022-10-30T18:19:10.008Z,146724.19
2022-10-30T18:21:37.717Z,146646.13
2022-10-30T18:24:11.126Z,146665.66
2022-10-30T18:26:40.742Z,146587.66
2022-10-30T18:29:09.398Z,146590.09
2022-10-30T18:31:37.565Z,146569.38
2022-10-30T18:34:04.717Z,146626.66
2022-10-30T18:36:31.820Z,146582.78
2022-10-30T18:38:58.792Z,146608.38
2022-10-30T18:41:37.910Z,146456.13
2022-10-30T18:44:05.253Z,146563.31
2022-10-30T18:46:33.602Z,146564.50
2022-10-30T18:49:00.968Z,146515.81
2022-10-30T18:51:28.899Z,146541.38
2022-10-30T18:53:56.929Z,146504.81
2022-10-30T18:56:29.566Z,146538.94
2022-10-30T18:59:02.064Z,146498.75
2022-10-30T19:01:33.004Z,146499.94
2022-10-30T19:04:02.144Z,146504.81
2022-10-30T19:06:29.380Z,146503.63
2022-10-30T19:08:56.441Z,146395.16
2022-10-30T19:11:25.322Z,146412.28
2022-10-30T19:13:54.198Z,146448.81
2022-10-30T19:16:24.372Z,146433.00
2022-10-30T19:18:52.453Z,146417.13
2022-10-30T19:21:25.716Z,146393.97
2022-10-30T19:23:54.581Z,146384.22
2022-10-30T19:26:21.746Z,146363.50
2022-10-30T19:28:48.780Z,146328.22
2022-10-30T19:31:17.795Z,146340.38
2022-10-30T19:33:45.867Z,146305.09
2022-10-30T19:36:34.391Z,146334.31
2022-10-30T19:39:08.624Z,146324.56
2022-10-30T19:41:36.943Z,146238.16
2022-10-30T19:44:04.407Z,146307.50
2022-10-30T19:46:31.433Z,146303.84
2022-10-30T19:48:59.556Z,146297.78
2022-10-30T19:51:28.637Z,146292.91
2022-10-30T19:53:55.951Z,146297.78
2022-10-30T19:56:23.455Z,146288.03
2022-10-30T19:58:50.547Z,146268.59
2022-10-30T20:01:17.896Z,146288.03
2022-10-30T20:03:45.017Z,146222.28
2022-10-30T20:06:12.961Z,146215.03
2022-10-30T20:08:40.623Z,146243.00
2022-10-30T20:11:07.831Z,146229.63
2022-10-30T20:13:35.168Z,146197.97
2022-10-30T20:16:04.789Z,146212.56
2022-10-30T20:18:34.759Z,146193.09
2022-10-30T20:21:05.577Z,146183.38
2022-10-30T20:23:32.576Z,146163.91
2022-10-30T20:26:02.456Z,146135.94
2022-10-30T20:28:40.224Z,146142.00
2022-10-30T20:31:10.694Z,146139.56
2022-10-30T20:33:37.878Z,146077.53
2022-10-30T20:36:05.375Z,146098.19
2022-10-30T20:38:33.734Z,146059.22
2022-10-30T20:41:03.227Z,146098.19
2022-10-30T20:43:35.742Z,146037.31
2022-10-30T20:46:06.835Z,146088.47
2022-10-30T20:48:33.923Z,146078.72
2022-10-30T20:51:02.008Z,145993.53
2022-10-30T20:53:29.460Z,146059.22
2022-10-30T20:55:56.826Z,145976.53
2022-10-30T20:58:24.565Z,146066.50
2022-10-30T21:00:54.406Z,146049.50
2022-10-30T21:03:21.467Z,145992.31
2022-10-30T21:05:55.775Z,146044.66
2022-10-30T21:08:22.871Z,146038.53
2022-10-30T21:10:50.016Z,146005.69
2022-10-30T21:13:17.022Z,146032.47
2022-10-30T21:15:44.909Z,146034.88
2022-10-30T21:18:13.019Z,146037.31
2022-10-30T21:20:41.194Z,146042.19
2022-10-30T21:23:08.622Z,146028.81
2022-10-30T21:25:36.090Z,145926.66
2022-10-30T21:28:03.293Z,145920.56
2022-10-30T21:30:30.582Z,145988.66
2022-10-30T21:32:59.063Z,145993.53
2022-10-30T21:35:27.486Z,145918.16
2022-10-30T21:37:54.485Z,145982.59
2022-10-30T21:40:21.688Z,145909.63
2022-10-30T21:42:48.797Z,145944.91
2022-10-30T21:45:16.242Z,145965.56
2022-10-30T21:47:43.270Z,145961.91
2022-10-30T21:50:12.741Z,145884.06
2022-10-30T21:52:40.630Z,145908.44
2022-10-30T21:55:08.360Z,145930.28
2022-10-30T21:57:35.663Z,145932.72
2022-10-30T22:00:05.855Z,145923.00
2022-10-30T22:02:35.501Z,145940.03
2022-10-30T22:05:02.577Z,145884.06
2022-10-30T22:07:29.650Z,145954.63
2022-10-30T22:09:57.011Z,145898.69
2022-10-30T22:12:24.010Z,145926.66
2022-10-30T22:14:51.006Z,145915.69
2022-10-30T22:17:17.977Z,145891.38
2022-10-30T22:19:45.016Z,145884.06
2022-10-30T22:22:12.080Z,145882.88
2022-10-30T22:24:39.079Z,145879.22
2022-10-30T22:27:06.114Z,145818.44
2022-10-30T22:29:33.129Z,145875.56
2022-10-30T22:32:00.127Z,145795.34
2022-10-30T22:34:27.124Z,145854.91
2022-10-30T22:36:54.121Z,145846.41
2022-10-30T22:39:21.277Z,145837.88
2022-10-30T22:41:48.260Z,145837.88
2022-10-30T22:44:18.512Z,145833.03
2022-10-30T22:46:45.922Z,145786.84
2022-10-30T22:49:13.030Z,145817.25
2022-10-30T22:51:40.308Z,145817.25
2022-10-30T22:54:11.066Z,145813.59
2022-10-30T22:56:39.489Z,145758.88
2022-10-30T22:59:10.148Z,145755.22
2022-10-30T23:01:38.936Z,145786.84
2022-10-30T23:04:07.437Z,145799.00
2022-10-30T23:06:36.007Z,145701.75
2022-10-30T23:09:07.089Z,145762.53
2022-10-30T23:11:34.400Z,145743.06
2022-10-30T23:14:01.783Z,145721.22
2022-10-30T23:16:29.352Z,145699.34
2022-10-30T23:18:58.012Z,145682.25
2022-10-30T23:21:27.467Z,145724.84
2022-10-30T23:23:54.891Z,145722.44
2022-10-30T23:26:27.827Z,145715.13
2022-10-30T23:28:55.728Z,145694.44
2022-10-30T23:31:30.110Z,145699.34
2022-10-30T23:33:59.121Z,145688.31
2022-10-30T23:36:26.974Z,145672.56
2022-10-30T23:38:55.713Z,145676.19
2022-10-30T23:41:25.661Z,145665.25
2022-10-30T23:43:57.677Z,145569.28
2022-10-30T23:46:24.878Z,145589.94
2022-10-30T23:48:52.328Z,145560.75
2022-10-30T23:51:19.780Z,145642.16
2022-10-30T23:53:47.355Z,145535.28
2022-10-30T23:56:15.153Z,145653.13
2022-10-30T23:58:46.977Z,145599.66
